Time;durP1;ratioP1;P1;durP2;ratioP2;P2;SDS_P1;SDS_P2;PMS_P1;PMS_P2;Temp;Humidity;BMP_temperature;BMP_pressure;BME280_temperature;BME280_humidity;BME280_pressure;Samples;Min_cycle;Max_cycle;Signal;HPM_P1;HPM_P2
2022/09/12 00:00:45;;;;;;;3.28;2.25;;;;;;;;;;5029342;28;20040;-47
2022/09/12 00:03:11;;;;;;;3.90;2.50;;;;;;;;;;5031958;28;20025;-44
2022/09/12 00:05:42;;;;;;;2.70;2.17;;;;;;;;;;5037939;28;20063;-45
2022/09/12 00:08:08;;;;;;;3.40;2.17;;;;;;;;;;5051444;28;20031;-44
2022/09/12 00:10:36;;;;;;;2.60;1.98;;;;;;;;;;5049690;28;20035;-50
2022/09/12 00:13:02;;;;;;;3.05;2.20;;;;;;;;;;5050529;28;20431;-45
2022/09/12 00:15:28;;;;;;;2.53;2.33;;;;;;;;;;5051298;28;20025;-46
2022/09/12 00:17:54;;;;;;;3.08;2.58;;;;;;;;;;5053475;28;20108;-45
2022/09/12 00:20:20;;;;;;;2.50;2.17;;;;;;;;;;5051605;28;20021;-44
2022/09/12 00:22:46;;;;;;;5.95;2.22;;;;;;;;;;5048212;28;20118;-45
2022/09/12 00:25:12;;;;;;;3.95;2.90;;;;;;;;;;5049794;28;20033;-44
2022/09/12 00:27:38;;;;;;;3.63;2.63;;;;;;;;;;5051470;28;20639;-45
2022/09/12 00:30:04;;;;;;;3.55;2.47;;;;;;;;;;5052958;28;20112;-46
2022/09/12 00:32:30;;;;;;;2.67;2.05;;;;;;;;;;5054563;28;20025;-44
2022/09/12 00:34:56;;;;;;;2.97;2.28;;;;;;;;;;5045800;28;20029;-44
2022/09/12 00:37:22;;;;;;;4.05;2.40;;;;;;;;;;5050057;28;20025;-44
2022/09/12 00:39:48;;;;;;;2.40;1.83;;;;;;;;;;5048528;28;20145;-45
2022/09/12 00:42:14;;;;;;;3.30;2.00;;;;;;;;;;5048439;28;20037;-45
2022/09/12 00:44:44;;;;;;;3.83;2.35;;;;;;;;;;5049307;28;20021;-47
2022/09/12 00:47:17;;;;;;;2.45;2.22;;;;;;;;;;5050072;28;20037;-44
2022/09/12 00:49:49;;;;;;;2.25;1.98;;;;;;;;;;5028995;28;20387;-45
2022/09/12 00:52:18;;;;;;;2.90;2.45;;;;;;;;;;5054317;28;20025;-44
2022/09/12 00:54:47;;;;;;;3.13;2.20;;;;;;;;;;5047166;28;20029;-44
2022/09/12 00:57:14;;;;;;;3.40;2.13;;;;;;;;;;5049446;28;20097;-44
2022/09/12 00:59:44;;;;;;;3.72;2.15;;;;;;;;;;5049388;28;20024;-45
2022/09/12 01:02:10;;;;;;;2.53;2.13;;;;;;;;;;5051397;28;20056;-45
2022/09/12 01:04:38;;;;;;;3.45;2.58;;;;;;;;;;5049231;28;20033;-51
2022/09/12 01:07:04;;;;;;;2.53;2.10;;;;;;;;;;5055706;28;20037;-45
2022/09/12 01:09:30;;;;;;;3.47;2.20;;;;;;;;;;5052758;28;20033;-44
2022/09/12 01:11:56;;;;;;;2.80;2.38;;;;;;;;;;5049882;28;20044;-48
2022/09/12 01:14:22;;;;;;;4.13;2.85;;;;;;;;;;5054517;28;20041;-44
2022/09/12 01:16:49;;;;;;;5.15;2.97;;;;;;;;;;5052805;28;20037;-45
2022/09/12 01:19:34;;;;;;;2.78;1.73;;;;;;;;;;5056333;28;20032;-45
2022/09/12 01:22:17;;;;;;;2.92;2.30;;;;;;;;;;5053794;28;20079;-46
2022/09/12 01:25:02;;;;;;;2.95;2.25;;;;;;;;;;5048110;28;20103;-46
2022/09/12 01:27:27;;;;;;;3.20;2.55;;;;;;;;;;5048369;28;20048;-45
2022/09/12 01:30:02;;;;;;;2.95;2.50;;;;;;;;;;5062223;28;20109;-46
2022/09/12 01:32:36;;;;;;;4.05;2.22;;;;;;;;;;5054630;28;20029;-45
2022/09/12 01:35:21;;;;;;;2.90;2.20;;;;;;;;;;5049818;28;20021;-45
2022/09/12 01:38:06;;;;;;;2.60;2.30;;;;;;;;;;5052912;28;20111;-45
2022/09/12 01:40:41;;;;;;;3.88;2.53;;;;;;;;;;5063079;28;20028;-45
2022/09/12 01:43:18;;;;;;;4.38;2.58;;;;;;;;;;5055399;28;20048;-44
2022/09/12 01:45:44;;;;;;;2.35;2.15;;;;;;;;;;5069115;28;20040;-45
2022/09/12 01:48:14;;;;;;;4.25;2.55;;;;;;;;;;5073767;28;20096;-45
2022/09/12 01:50:46;;;;;;;2.45;1.92;;;;;;;;;;5073145;28;20025;-47
2022/09/12 01:53:15;;;;;;;4.43;2.20;;;;;;;;;;5046296;28;20074;-45
2022/09/12 01:55:45;;;;;;;2.90;2.25;;;;;;;;;;5049887;28;20566;-45
2022/09/12 01:58:12;;;;;;;3.33;2.33;;;;;;;;;;5063337;28;20056;-44
2022/09/12 02:00:43;;;;;;;3.85;2.42;;;;;;;;;;5063907;28;20168;-48
2022/09/12 02:03:12;;;;;;;2.08;1.85;;;;;;;;;;5052013;28;20039;-46
2022/09/12 02:05:46;;;;;;;3.10;2.67;;;;;;;;;;5045198;28;20500;-50
2022/09/12 02:08:14;;;;;;;3.58;2.42;;;;;;;;;;5034073;28;20053;-45
2022/09/12 02:10:46;;;;;;;3.92;2.60;;;;;;;;;;5032735;28;20030;-45
2022/09/12 02:13:18;;;;;;;4.13;2.58;;;;;;;;;;5040587;28;20063;-44
2022/09/12 02:15:47;;;;;;;2.33;2.13;;;;;;;;;;5051766;28;20109;-45
2022/09/12 02:18:13;;;;;;;2.72;2.20;;;;;;;;;;5030079;28;20025;-44
2022/09/12 02:20:40;;;;;;;3.60;2.25;;;;;;;;;;5033202;28;20041;-48
2022/09/12 02:23:08;;;;;;;2.60;2.40;;;;;;;;;;5034326;28;20041;-46
2022/09/12 02:25:37;;;;;;;3.55;2.55;;;;;;;;;;5039995;28;20021;-45
2022/09/12 02:28:06;;;;;;;3.03;2.40;;;;;;;;;;5042226;28;20094;-44
2022/09/12 02:30:39;;;;;;;3.08;2.45;;;;;;;;;;5032486;28;20025;-44
2022/09/12 02:33:05;;;;;;;3.95;2.50;;;;;;;;;;5031638;28;20025;-44
2022/09/12 02:35:37;;;;;;;2.70;2.38;;;;;;;;;;5026447;28;20044;-46
2022/09/12 02:38:22;;;;;;;2.90;2.28;;;;;;;;;;5024055;28;20034;-44
2022/09/12 02:40:48;;;;;;;2.55;2.15;;;;;;;;;;5033802;28;20033;-44
2022/09/12 02:43:14;;;;;;;2.97;2.38;;;;;;;;;;5033610;28;20021;-44
2022/09/12 02:45:40;;;;;;;4.15;3.00;;;;;;;;;;5032630;28;20052;-51
2022/09/12 02:48:09;;;;;;;3.70;2.47;;;;;;;;;;5033174;28;20478;-45
2022/09/12 02:50:35;;;;;;;2.90;2.33;;;;;;;;;;5033309;28;20021;-45
2022/09/12 02:53:03;;;;;;;2.67;2.25;;;;;;;;;;5031134;28;20044;-45
2022/09/12 02:55:31;;;;;;;2.20;2.00;;;;;;;;;;5048828;28;20025;-45
2022/09/12 02:57:57;;;;;;;4.93;3.13;;;;;;;;;;5032505;28;20455;-44
2022/09/12 03:00:23;;;;;;;2.40;2.20;;;;;;;;;;5032952;28;20025;-44
2022/09/12 03:03:08;;;;;;;2.88;2.25;;;;;;;;;;5032188;28;20105;-45
2022/09/12 03:05:34;;;;;;;3.85;3.17;;;;;;;;;;5032737;28;20095;-45
2022/09/12 03:08:03;;;;;;;3.38;2.92;;;;;;;;;;5013467;28;20025;-45
2022/09/12 03:10:32;;;;;;;3.22;2.55;;;;;;;;;;5033730;28;20376;-44
2022/09/12 03:13:16;;;;;;;2.55;2.20;;;;;;;;;;5031365;28;20462;-46
2022/09/12 03:15:48;;;;;;;3.20;2.67;;;;;;;;;;5032166;28;20026;-50
2022/09/12 03:18:43;;;;;;;2.65;2.25;;;;;;;;;;5032908;28;20028;-45
2022/09/12 03:21:12;;;;;;;2.97;2.53;;;;;;;;;;5018594;28;20091;-45
2022/09/12 03:23:48;;;;;;;3.10;2.63;;;;;;;;;;5019257;28;20022;-45
2022/09/12 03:26:25;;;;;;;3.78;2.55;;;;;;;;;;5026447;28;20394;-44
2022/09/12 03:28:52;;;;;;;1.92;1.80;;;;;;;;;;5031136;28;20087;-44
2022/09/12 03:31:19;;;;;;;2.35;2.15;;;;;;;;;;5031985;28;20037;-44
2022/09/12 03:33:45;;;;;;;2.67;1.90;;;;;;;;;;5043620;28;20115;-47
2022/09/12 03:36:22;;;;;;;2.95;2.25;;;;;;;;;;5051675;28;20485;-47
2022/09/12 03:38:48;;;;;;;3.35;2.05;;;;;;;;;;5027301;28;20528;-45
2022/09/12 03:41:14;;;;;;;3.28;2.20;;;;;;;;;;5044858;28;20065;-45
2022/09/12 03:43:40;;;;;;;4.00;2.03;;;;;;;;;;5031086;28;20367;-49
2022/09/12 03:46:06;;;;;;;2.30;2.03;;;;;;;;;;5031129;28;20471;-48
2022/09/12 03:48:32;;;;;;;4.22;2.25;;;;;;;;;;5031513;28;20037;-45
2022/09/12 03:51:06;;;;;;;2.38;2.13;;;;;;;;;;5031890;28;20030;-46
2022/09/12 03:53:32;;;;;;;2.60;2.15;;;;;;;;;;5050374;28;20025;-46
2022/09/12 03:55:58;;;;;;;3.75;2.25;;;;;;;;;;5050675;28;20025;-46
2022/09/12 03:58:25;;;;;;;3.53;2.53;;;;;;;;;;5036280;28;20084;-50
2022/09/12 04:00:51;;;;;;;2.45;2.20;;;;;;;;;;5028061;28;20032;-49
2022/09/12 04:03:18;;;;;;;2.47;2.25;;;;;;;;;;5032191;28;20037;-45
2022/09/12 04:05:45;;;;;;;2.47;2.00;;;;;;;;;;5032344;28;20053;-50
2022/09/12 04:08:11;;;;;;;3.17;2.30;;;;;;;;;;5044333;28;20029;-44
2022/09/12 04:10:37;;;;;;;3.92;2.47;;;;;;;;;;5051008;28;20029;-45
2022/09/12 04:13:03;;;;;;;4.25;2.50;;;;;;;;;;5033996;28;20017;-47
2022/09/12 04:15:29;;;;;;;2.65;2.25;;;;;;;;;;5031775;28;20100;-44
2022/09/12 04:17:55;;;;;;;3.00;2.17;;;;;;;;;;5032254;28;20094;-44
2022/09/12 04:20:21;;;;;;;2.88;2.47;;;;;;;;;;5032985;28;20104;-45
2022/09/12 04:22:47;;;;;;;2.65;1.95;;;;;;;;;;5032200;28;20021;-49
2022/09/12 04:25:13;;;;;;;3.05;2.40;;;;;;;;;;5031754;28;20463;-47
2022/09/12 04:27:39;;;;;;;3.40;1.95;;;;;;;;;;5033244;28;20025;-48
2022/09/12 04:30:05;;;;;;;2.63;2.40;;;;;;;;;;5027494;28;20849;-44
2022/09/12 04:32:31;;;;;;;4.47;2.13;;;;;;;;;;5026239;28;20021;-45
2022/09/12 04:34:57;;;;;;;2.40;2.13;;;;;;;;;;5029160;28;20025;-45
2022/09/12 04:37:23;;;;;;;3.22;2.80;;;;;;;;;;5025269;28;20057;-46
2022/09/12 04:39:50;;;;;;;3.42;2.33;;;;;;;;;;5026479;28;20053;-45
2022/09/12 04:42:16;;;;;;;2.28;2.08;;;;;;;;;;5034384;28;20030;-45
2022/09/12 04:44:42;;;;;;;3.08;2.13;;;;;;;;;;5036406;28;20028;-49
2022/09/12 04:47:08;;;;;;;2.63;2.00;;;;;;;;;;5035928;28;20033;-44
2022/09/12 04:49:34;;;;;;;2.42;2.17;;;;;;;;;;5037411;28;20037;-45
2022/09/12 04:52:00;;;;;;;2.88;2.40;;;;;;;;;;5044864;28;20021;-45
2022/09/12 04:54:26;;;;;;;3.80;2.60;;;;;;;;;;5032012;28;20018;-45
2022/09/12 04:56:54;;;;;;;4.60;2.13;;;;;;;;;;5034597;28;20138;-44
2022/09/12 04:59:20;;;;;;;4.03;2.33;;;;;;;;;;5035444;28;20079;-45
2022/09/12 05:01:47;;;;;;;2.65;2.15;;;;;;;;;;5034704;28;20025;-50
2022/09/12 05:04:13;;;;;;;3.05;2.53;;;;;;;;;;5038412;28;20013;-45
2022/09/12 05:06:40;;;;;;;9.80;2.65;;;;;;;;;;5037614;28;20091;-47
2022/09/12 05:09:07;;;;;;;2.67;2.20;;;;;;;;;;5034619;28;20018;-45
2022/09/12 05:11:35;;;;;;;3.40;2.38;;;;;;;;;;5044454;28;20020;-49
2022/09/12 05:14:01;;;;;;;3.92;2.45;;;;;;;;;;5057715;28;20347;-49
2022/09/12 05:16:27;;;;;;;2.30;1.98;;;;;;;;;;5054435;28;20037;-49
2022/09/12 05:18:56;;;;;;;10.55;2.38;;;;;;;;;;5059926;28;20045;-45
2022/09/12 05:21:23;;;;;;;3.63;2.40;;;;;;;;;;5074024;28;20032;-45
2022/09/12 05:23:52;;;;;;;4.07;2.20;;;;;;;;;;5073768;28;20028;-51
2022/09/12 05:26:19;;;;;;;2.88;2.45;;;;;;;;;;5073861;28;20102;-47
2022/09/12 05:28:45;;;;;;;2.78;2.08;;;;;;;;;;5074089;28;20032;-46
2022/09/12 05:31:13;;;;;;;3.05;2.20;;;;;;;;;;5073474;28;20032;-47
2022/09/12 05:33:40;;;;;;;2.72;1.92;;;;;;;;;;5064437;28;20574;-45
2022/09/12 05:36:07;;;;;;;2.75;2.20;;;;;;;;;;5053855;28;20092;-44
2022/09/12 05:38:36;;;;;;;2.25;2.05;;;;;;;;;;5054647;28;20052;-48
2022/09/12 05:41:23;;;;;;;2.88;2.50;;;;;;;;;;5063746;28;20078;-48
2022/09/12 05:43:51;;;;;;;2.85;2.22;;;;;;;;;;5065260;28;20021;-52
2022/09/12 05:46:18;;;;;;;3.53;2.17;;;;;;;;;;5054203;28;20029;-46
2022/09/12 05:48:45;;;;;;;2.97;2.63;;;;;;;;;;5068941;28;20039;-46
2022/09/12 05:51:12;;;;;;;2.85;2.17;;;;;;;;;;5071869;28;20039;-46
2022/09/12 05:53:40;;;;;;;6.22;3.40;;;;;;;;;;5073923;28;20073;-47
2022/09/12 05:56:07;;;;;;;6.30;4.30;;;;;;;;;;5072746;28;20035;-48
2022/09/12 05:58:34;;;;;;;7.63;4.32;;;;;;;;;;5046307;28;20017;-45
2022/09/12 06:01:07;;;;;;;5.07;3.60;;;;;;;;;;5068084;28;20024;-46
2022/09/12 06:03:34;;;;;;;6.97;3.90;;;;;;;;;;5055256;28;20104;-50
2022/09/12 06:06:04;;;;;;;7.05;4.05;;;;;;;;;;5053223;28;20052;-48
2022/09/12 06:08:30;;;;;;;9.32;4.38;;;;;;;;;;5054016;28;20087;-49
2022/09/12 06:11:04;;;;;;;6.63;5.07;;;;;;;;;;5052592;28;20017;-46
2022/09/12 06:13:34;;;;;;;6.90;6.20;;;;;;;;;;5070136;28;20082;-48
2022/09/12 06:16:09;;;;;;;7.72;5.32;;;;;;;;;;5064000;28;20028;-44
2022/09/12 06:18:36;;;;;;;8.02;5.93;;;;;;;;;;5073337;28;20037;-48
2022/09/12 06:21:06;;;;;;;8.23;5.78;;;;;;;;;;5072257;28;20082;-49
2022/09/12 06:23:32;;;;;;;7.13;5.35;;;;;;;;;;5070805;28;20032;-45
2022/09/12 06:25:58;;;;;;;6.25;5.20;;;;;;;;;;5058430;28;20043;-48
2022/09/12 06:28:24;;;;;;;8.25;5.10;;;;;;;;;;5057791;28;20096;-45
2022/09/12 06:30:50;;;;;;;8.93;5.45;;;;;;;;;;5059406;28;20075;-48
2022/09/12 06:33:16;;;;;;;8.35;6.13;;;;;;;;;;5064785;28;20035;-45
2022/09/12 06:35:42;;;;;;;8.32;5.60;;;;;;;;;;5068126;28;20028;-46
2022/09/12 06:38:08;;;;;;;9.85;6.18;;;;;;;;;;5051648;28;20299;-46
2022/09/12 06:40:35;;;;;;;7.68;5.78;;;;;;;;;;5053060;28;20111;-52
2022/09/12 06:43:01;;;;;;;8.05;5.53;;;;;;;;;;5054661;28;20024;-47
2022/09/12 06:45:27;;;;;;;7.53;5.78;;;;;;;;;;5054362;28;20024;-47
2022/09/12 06:47:55;;;;;;;7.50;5.40;;;;;;;;;;5051045;28;20040;-52
2022/09/12 06:50:21;;;;;;;7.68;5.63;;;;;;;;;;5069097;28;20044;-46
2022/09/12 06:52:48;;;;;;;6.72;5.32;;;;;;;;;;5072640;28;20484;-45
2022/09/12 06:55:14;;;;;;;7.47;5.57;;;;;;;;;;5064567;28;20260;-46
2022/09/12 06:57:40;;;;;;;6.22;4.93;;;;;;;;;;5073058;28;20067;-46
2022/09/12 07:00:07;;;;;;;7.07;5.05;;;;;;;;;;5072424;28;20081;-45
2022/09/12 07:02:33;;;;;;;8.48;4.20;;;;;;;;;;5051905;28;20036;-50
2022/09/12 07:04:59;;;;;;;8.98;3.65;;;;;;;;;;5054065;28;20466;-47
2022/09/12 07:07:25;;;;;;;6.00;3.42;;;;;;;;;;5052304;28;20045;-47
2022/09/12 07:09:51;;;;;;;6.85;3.75;;;;;;;;;;5057050;28;20017;-52
2022/09/12 07:12:17;;;;;;;5.40;4.05;;;;;;;;;;5052099;28;20098;-46
2022/09/12 07:14:43;;;;;;;5.20;3.60;;;;;;;;;;5048227;28;20025;-44
2022/09/12 07:17:11;;;;;;;5.05;3.28;;;;;;;;;;5047503;28;20041;-47
2022/09/12 07:19:37;;;;;;;6.15;3.85;;;;;;;;;;5052240;28;20104;-45
2022/09/12 07:22:03;;;;;;;11.13;3.90;;;;;;;;;;5054964;28;20461;-47
2022/09/12 07:24:29;;;;;;;4.28;3.33;;;;;;;;;;5060554;28;20021;-47
2022/09/12 07:26:55;;;;;;;4.68;3.53;;;;;;;;;;5051369;28;20037;-50
2022/09/12 07:29:21;;;;;;;4.45;3.60;;;;;;;;;;5058971;28;20029;-46
2022/09/12 07:31:47;;;;;;;5.07;3.28;;;;;;;;;;5052021;28;20060;-46
2022/09/12 07:34:13;;;;;;;6.45;3.63;;;;;;;;;;5056689;28;20632;-45
2022/09/12 07:36:39;;;;;;;5.20;3.15;;;;;;;;;;5062885;28;20021;-47
2022/09/12 07:39:05;;;;;;;5.07;3.13;;;;;;;;;;5056782;28;20028;-47
2022/09/12 07:41:34;;;;;;;5.85;3.88;;;;;;;;;;5051937;28;20049;-47
2022/09/12 07:44:02;;;;;;;5.28;3.22;;;;;;;;;;5054190;28;20036;-49
2022/09/12 07:46:28;;;;;;;5.63;3.22;;;;;;;;;;5060146;28;20039;-47
2022/09/12 07:48:55;;;;;;;6.18;3.40;;;;;;;;;;5058370;28;20474;-53
2022/09/12 07:51:22;;;;;;;4.18;3.08;;;;;;;;;;5051972;28;20426;-45
2022/09/12 07:53:48;;;;;;;4.55;3.22;;;;;;;;;;5051679;28;20063;-44
2022/09/12 07:56:15;;;;;;;6.85;3.10;;;;;;;;;;5059842;28;20028;-45
2022/09/12 07:58:41;;;;;;;5.00;3.55;;;;;;;;;;5058262;28;20033;-45
2022/09/12 08:01:09;;;;;;;6.05;3.40;;;;;;;;;;5054416;28;20508;-44
2022/09/12 08:03:35;;;;;;;5.82;3.17;;;;;;;;;;5060149;28;20485;-45
2022/09/12 08:06:02;;;;;;;4.40;3.00;;;;;;;;;;5058185;28;20052;-45
2022/09/12 08:08:28;;;;;;;3.90;2.67;;;;;;;;;;5066989;28;20024;-45
2022/09/12 08:10:58;;;;;;;5.20;3.55;;;;;;;;;;5071251;28;20116;-51
2022/09/12 08:13:25;;;;;;;4.80;3.10;;;;;;;;;;5051100;28;20490;-44
2022/09/12 08:15:51;;;;;;;5.15;3.03;;;;;;;;;;5051902;28;20366;-44
2022/09/12 08:18:17;;;;;;;5.60;3.28;;;;;;;;;;5050697;28;20095;-44
2022/09/12 08:20:43;;;;;;;4.40;2.85;;;;;;;;;;5051265;28;20079;-45
2022/09/12 08:23:09;;;;;;;3.20;2.30;;;;;;;;;;5061485;28;20060;-48
2022/09/12 08:25:35;;;;;;;5.50;2.80;;;;;;;;;;5051866;28;20061;-45
2022/09/12 08:28:01;;;;;;;4.30;3.20;;;;;;;;;;5064251;28;20067;-45
2022/09/12 08:30:28;;;;;;;5.05;3.35;;;;;;;;;;5070536;28;20392;-44
2022/09/12 08:32:54;;;;;;;4.88;3.10;;;;;;;;;;5059739;28;20033;-52
2022/09/12 08:35:20;;;;;;;4.57;2.90;;;;;;;;;;5052364;28;20071;-45
2022/09/12 08:37:46;;;;;;;4.78;3.10;;;;;;;;;;5052365;28;20106;-44
2022/09/12 08:40:16;;;;;;;6.57;3.03;;;;;;;;;;5056862;28;20031;-44
2022/09/12 08:43:17;;;;;;;4.60;2.85;;;;;;;;;;5052165;28;20056;-44
2022/09/12 08:45:50;;;;;;;5.83;2.83;;;;;;;;;;5017479;28;20029;-46
2022/09/12 08:48:16;;;;;;;4.60;2.83;;;;;;;;;;5046873;28;20647;-45
2022/09/12 08:50:44;;;;;;;3.83;2.95;;;;;;;;;;5070213;28;20416;-45
2022/09/12 08:53:13;;;;;;;5.20;2.88;;;;;;;;;;5052123;28;20028;-44
2022/09/12 08:55:44;;;;;;;4.45;2.70;;;;;;;;;;5061561;28;20044;-44
2022/09/12 08:58:18;;;;;;;3.80;2.92;;;;;;;;;;5069944;28;20158;-46
2022/09/12 09:00:48;;;;;;;4.88;3.00;;;;;;;;;;5066992;28;20070;-45
2022/09/12 09:03:23;;;;;;;6.18;2.88;;;;;;;;;;5051111;28;20033;-44
2022/09/12 09:05:51;;;;;;;5.45;3.00;;;;;;;;;;5060741;28;20060;-45
2022/09/12 09:08:17;;;;;;;4.22;2.72;;;;;;;;;;5069499;28;20646;-44
2022/09/12 09:11:09;;;;;;;2.78;2.25;;;;;;;;;;5064552;28;20044;-44
2022/09/12 09:16:36;;;;;;;4.82;2.42;;;;;;;;;;5051017;28;20453;-49
2022/09/12 09:19:06;;;;;;;3.10;2.28;;;;;;;;;;5050271;28;20017;-45
2022/09/12 09:21:34;;;;;;;3.35;1.95;;;;;;;;;;5051998;28;20104;-45
2022/09/12 09:24:03;;;;;;;2.75;2.13;;;;;;;;;;5065510;28;20100;-46
2022/09/12 09:26:33;;;;;;;3.17;2.20;;;;;;;;;;5053525;28;20048;-46
2022/09/12 09:29:02;;;;;;;2.88;2.30;;;;;;;;;;5053979;28;20039;-53
2022/09/12 09:31:32;;;;;;;3.30;1.98;;;;;;;;;;5059752;28;20033;-46
2022/09/12 09:33:59;;;;;;;3.58;2.00;;;;;;;;;;5047626;28;20112;-52
2022/09/12 09:36:34;;;;;;;3.83;2.85;;;;;;;;;;5070192;28;20036;-45
2022/09/12 09:39:17;;;;;;;4.60;1.90;;;;;;;;;;5069212;28;20053;-45
2022/09/12 09:42:06;;;;;;;2.17;1.70;;;;;;;;;;5055911;28;20036;-47
2022/09/12 09:44:32;;;;;;;3.17;2.03;;;;;;;;;;5050120;28;20789;-50
2022/09/12 09:46:59;;;;;;;3.50;2.35;;;;;;;;;;5062903;28;20086;-51
2022/09/12 09:49:27;;;;;;;2.60;1.67;;;;;;;;;;5073572;28;20078;-44
2022/09/12 09:51:54;;;;;;;3.00;1.60;;;;;;;;;;5066731;28;20025;-44
2022/09/12 09:54:39;;;;;;;2.53;1.55;;;;;;;;;;5072500;28;20024;-44
2022/09/12 09:57:25;;;;;;;2.67;1.67;;;;;;;;;;5072545;28;20098;-44
2022/09/12 09:59:51;;;;;;;1.45;1.30;;;;;;;;;;5073614;28;20439;-44
2022/09/12 10:02:22;;;;;;;2.53;1.55;;;;;;;;;;5065203;28;20059;-44
2022/09/12 10:04:58;;;;;;;1.98;1.50;;;;;;;;;;5055848;28;20055;-45
2022/09/12 10:07:25;;;;;;;2.22;1.58;;;;;;;;;;5046598;28;20085;-44
2022/09/12 10:10:30;;;;;;;3.83;2.20;;;;;;;;;;5053706;28;20025;-44
2022/09/12 10:13:23;;;;;;;1.83;1.45;;;;;;;;;;4991216;28;20089;-44
2022/09/12 10:15:57;;;;;;;1.10;1.00;;;;;;;;;;4992047;28;20467;-44
2022/09/12 10:18:43;;;;;;;2.15;1.40;;;;;;;;;;4991024;28;20515;-45
2022/09/12 10:21:16;;;;;;;1.60;1.42;;;;;;;;;;4990464;28;20058;-44
2022/09/12 10:23:42;;;;;;;2.28;1.30;;;;;;;;;;4991137;28;20030;-46
2022/09/12 10:26:10;;;;;;;2.33;1.52;;;;;;;;;;4988506;28;20534;-45
2022/09/12 10:28:38;;;;;;;2.55;1.40;;;;;;;;;;4991170;28;20042;-45
2022/09/12 10:31:04;;;;;;;2.10;1.15;;;;;;;;;;4990761;28;20037;-45
2022/09/12 10:33:41;;;;;;;1.55;1.15;;;;;;;;;;4991507;28;20030;-46
2022/09/12 10:36:07;;;;;;;2.65;1.25;;;;;;;;;;4990212;28;20030;-45
2022/09/12 10:38:33;;;;;;;1.77;1.30;;;;;;;;;;4990461;28;20078;-44
2022/09/12 10:41:09;;;;;;;1.98;1.20;;;;;;;;;;4990518;28;20037;-52
2022/09/12 10:43:36;;;;;;;1.30;1.15;;;;;;;;;;5027658;28;20032;-47
2022/09/12 10:46:15;;;;;;;1.30;1.00;;;;;;;;;;5071443;28;20036;-52
2022/09/12 10:48:41;;;;;;;2.85;1.30;;;;;;;;;;5072326;28;20021;-47
2022/09/12 10:51:14;;;;;;;1.10;1.00;;;;;;;;;;5054274;28;20021;-45
2022/09/12 10:53:41;;;;;;;1.50;1.10;;;;;;;;;;5060527;28;20104;-47
2022/09/12 10:56:09;;;;;;;3.95;1.42;;;;;;;;;;5065352;28;20036;-45
2022/09/12 10:58:44;;;;;;;1.98;1.00;;;;;;;;;;5052570;28;20087;-44
2022/09/12 11:01:10;;;;;;;4.03;1.60;;;;;;;;;;5052929;28;20039;-49
2022/09/12 11:03:49;;;;;;;1.40;1.30;;;;;;;;;;5072288;28;20103;-47
2022/09/12 11:06:17;;;;;;;2.50;1.58;;;;;;;;;;5058071;28;20044;-45
2022/09/12 11:08:58;;;;;;;1.90;1.25;;;;;;;;;;5071622;28;20462;-45
2022/09/12 11:11:42;;;;;;;1.55;1.30;;;;;;;;;;5070608;28;20047;-46
2022/09/12 11:14:18;;;;;;;1.08;0.98;;;;;;;;;;5047205;28;20048;-44
2022/09/12 11:16:50;;;;;;;2.72;1.20;;;;;;;;;;5053295;28;20052;-46
2022/09/12 11:19:35;;;;;;;2.15;1.30;;;;;;;;;;5059642;28;20036;-52
2022/09/12 11:22:11;;;;;;;1.60;1.48;;;;;;;;;;5050637;28;20363;-53
2022/09/12 11:24:43;;;;;;;2.30;1.10;;;;;;;;;;5068274;28;20047;-49
2022/09/12 11:27:28;;;;;;;5.03;1.90;;;;;;;;;;5052985;28;20103;-46
2022/09/12 11:29:58;;;;;;;1.77;1.23;;;;;;;;;;5068283;28;20517;-45
2022/09/12 11:32:30;;;;;;;1.83;1.40;;;;;;;;;;5050176;28;20119;-46
2022/09/12 11:34:57;;;;;;;;;;;;;;;;;;5054429;28;20110;-47
2022/09/12 11:37:23;;;;;;;1.98;1.05;;;;;;;;;;5052229;28;19904;-49
2022/09/12 11:39:51;;;;;;;2.10;1.10;;;;;;;;;;5059793;28;20052;-47
2022/09/12 11:42:21;;;;;;;1.50;1.00;;;;;;;;;;5069971;28;20486;-44
2022/09/12 11:44:52;;;;;;;1.48;1.00;;;;;;;;;;5056669;28;20025;-48
2022/09/12 11:47:19;;;;;;;1.38;1.08;;;;;;;;;;5050258;28;20363;-44
2022/09/12 11:49:47;;;;;;;2.10;1.13;;;;;;;;;;5051163;28;20529;-45
2022/09/12 11:52:15;;;;;;;2.53;1.40;;;;;;;;;;5068195;28;20099;-44
2022/09/12 11:54:46;;;;;;;1.10;1.00;;;;;;;;;;5070796;28;20454;-45
2022/09/12 11:57:12;;;;;;;2.25;0.98;;;;;;;;;;5070334;28;20031;-44
2022/09/12 11:59:44;;;;;;;0.90;0.80;;;;;;;;;;5071083;28;20112;-45
2022/09/12 12:02:27;;;;;;;0.82;0.73;;;;;;;;;;5070180;28;20031;-44
2022/09/12 12:04:56;;;;;;;0.90;0.80;;;;;;;;;;5053636;28;20025;-48
2022/09/12 12:07:22;;;;;;;2.08;0.70;;;;;;;;;;5049858;28;20049;-44
2022/09/12 12:09:50;;;;;;;1.50;0.80;;;;;;;;;;5043448;28;20132;-46
2022/09/12 12:12:20;;;;;;;1.55;0.90;;;;;;;;;;5050428;28;20032;-46
2022/09/12 12:14:48;;;;;;;1.20;1.00;;;;;;;;;;5051010;28;20033;-49
2022/09/12 12:17:15;;;;;;;1.40;1.02;;;;;;;;;;5045923;28;20035;-46
2022/09/12 12:19:41;;;;;;;1.23;1.00;;;;;;;;;;5051962;28;20055;-45
2022/09/12 12:22:07;;;;;;;1.00;0.90;;;;;;;;;;5050067;28;20036;-46
2022/09/12 12:24:33;;;;;;;1.00;0.90;;;;;;;;;;5050623;28;20091;-46
2022/09/12 12:27:01;;;;;;;1.17;0.80;;;;;;;;;;5050807;28;20029;-45
2022/09/12 12:29:27;;;;;;;1.17;0.80;;;;;;;;;;5049969;28;20044;-45
2022/09/12 12:32:02;;;;;;;2.58;0.85;;;;;;;;;;5051017;28;20029;-44
2022/09/12 12:34:34;;;;;;;2.42;0.77;;;;;;;;;;5048643;28;20520;-49
2022/09/12 12:37:18;;;;;;;1.42;0.60;;;;;;;;;;5051062;28;20044;-46
2022/09/12 12:39:46;;;;;;;1.05;0.95;;;;;;;;;;5050725;28;20033;-44
2022/09/12 12:42:35;;;;;;;1.20;0.77;;;;;;;;;;5049754;28;20071;-45
2022/09/12 12:45:03;;;;;;;0.80;0.73;;;;;;;;;;5050908;28;20405;-47
2022/09/12 12:47:49;;;;;;;1.75;0.90;;;;;;;;;;5050217;28;20102;-44
2022/09/12 12:50:15;;;;;;;0.68;0.60;;;;;;;;;;5049807;28;20103;-45
2022/09/12 12:52:46;;;;;;;1.77;0.63;;;;;;;;;;5050886;28;20025;-47
2022/09/12 12:55:19;;;;;;;1.00;0.70;;;;;;;;;;5049802;28;20016;-45
2022/09/12 12:57:55;;;;;;;2.75;0.80;;;;;;;;;;5049933;28;20033;-46
2022/09/12 13:00:41;;;;;;;1.00;0.88;;;;;;;;;;5052283;28;20105;-45
2022/09/12 13:03:20;;;;;;;1.30;0.82;;;;;;;;;;5053683;28;20032;-53
2022/09/12 13:05:48;;;;;;;1.58;1.00;;;;;;;;;;5054851;28;20053;-44
2022/09/12 13:08:16;;;;;;;1.30;0.88;;;;;;;;;;5053736;28;20052;-46
2022/09/12 13:10:56;;;;;;;1.10;0.70;;;;;;;;;;5054160;28;20028;-45
2022/09/12 13:13:41;;;;;;;1.55;0.60;;;;;;;;;;5053358;28;20082;-45
2022/09/12 13:16:09;;;;;;;0.60;0.50;;;;;;;;;;5053498;28;20028;-52
2022/09/12 13:18:41;;;;;;;0.88;0.63;;;;;;;;;;5054392;28;20017;-45
2022/09/12 13:21:15;;;;;;;0.70;0.60;;;;;;;;;;5053542;28;20025;-52
2022/09/12 13:23:41;;;;;;;0.60;0.52;;;;;;;;;;5054031;28;20045;-45
2022/09/12 13:26:11;;;;;;;0.75;0.70;;;;;;;;;;5053785;28;20106;-53
2022/09/12 13:28:37;;;;;;;0.80;0.57;;;;;;;;;;5053209;28;20033;-49
2022/09/12 13:31:22;;;;;;;0.57;0.52;;;;;;;;;;5053516;28;20051;-49
2022/09/12 13:33:50;;;;;;;1.20;0.90;;;;;;;;;;5053434;28;20025;-45
2022/09/12 13:36:35;;;;;;;1.08;0.80;;;;;;;;;;5052441;28;20406;-45
2022/09/12 13:39:01;;;;;;;0.80;0.70;;;;;;;;;;5053639;28;20086;-44
2022/09/12 13:41:33;;;;;;;0.50;0.50;;;;;;;;;;5052809;28;20025;-44
2022/09/12 13:44:00;;;;;;;0.70;0.60;;;;;;;;;;5053055;28;20466;-45
2022/09/12 13:46:28;;;;;;;0.70;0.60;;;;;;;;;;5052386;28;20687;-44
2022/09/12 13:48:55;;;;;;;3.22;0.60;;;;;;;;;;5053793;28;20044;-45
2022/09/12 13:51:24;;;;;;;1.33;0.80;;;;;;;;;;5052986;28;20025;-45
2022/09/12 13:53:51;;;;;;;1.02;0.60;;;;;;;;;;5053672;28;20029;-45
2022/09/12 13:56:18;;;;;;;1.10;0.68;;;;;;;;;;5052631;28;20052;-45
2022/09/12 13:58:52;;;;;;;0.70;0.60;;;;;;;;;;5052958;28;20071;-45
2022/09/12 14:01:19;;;;;;;0.80;0.60;;;;;;;;;;5052285;28;20057;-45
2022/09/12 14:06:36;;;;;;;0.70;0.50;;;;;;;;;;5044125;28;20056;-45
2022/09/12 14:09:11;;;;;;;1.75;0.90;;;;;;;;;;5053594;28;20021;-46
2022/09/12 14:11:38;;;;;;;0.95;0.70;;;;;;;;;;5052596;28;20059;-44
2022/09/12 14:14:06;;;;;;;2.15;0.80;;;;;;;;;;5053218;28;20048;-44
2022/09/12 14:16:37;;;;;;;1.63;0.77;;;;;;;;;;5054708;28;20055;-47
2022/09/12 14:19:04;;;;;;;1.38;0.60;;;;;;;;;;5064180;28;20021;-45
2022/09/12 14:21:34;;;;;;;2.00;0.70;;;;;;;;;;5063745;28;20061;-45
2022/09/12 14:24:00;;;;;;;1.27;0.50;;;;;;;;;;5063883;28;20039;-45
2022/09/12 14:26:31;;;;;;;0.63;0.50;;;;;;;;;;5052054;28;20427;-45
2022/09/12 14:28:57;;;;;;;1.63;0.80;;;;;;;;;;5052590;28;20025;-45
2022/09/12 14:31:28;;;;;;;0.60;0.60;;;;;;;;;;5052301;28;20017;-45
2022/09/12 14:34:09;;;;;;;0.70;0.63;;;;;;;;;;5053090;28;20032;-45
2022/09/12 14:36:35;;;;;;;0.75;0.70;;;;;;;;;;5052567;28;20029;-48
2022/09/12 14:39:03;;;;;;;0.57;0.57;;;;;;;;;;5052899;28;20025;-48
2022/09/12 14:41:30;;;;;;;0.68;0.40;;;;;;;;;;5052132;28;20265;-44
2022/09/12 14:44:01;;;;;;;1.10;0.60;;;;;;;;;;5052725;28;20378;-47
2022/09/12 14:46:32;;;;;;;0.60;0.60;;;;;;;;;;5051092;28;20483;-45
2022/09/12 14:49:01;;;;;;;1.15;0.93;;;;;;;;;;5052248;28;20132;-45
2022/09/12 14:51:31;;;;;;;1.58;0.50;;;;;;;;;;5051809;28;20535;-45
2022/09/12 14:53:58;;;;;;;1.17;0.70;;;;;;;;;;5052454;28;20025;-49
2022/09/12 14:56:37;;;;;;;0.60;0.50;;;;;;;;;;5051665;28;20043;-46
2022/09/12 14:59:22;;;;;;;0.70;0.70;;;;;;;;;;5052454;28;20031;-49
2022/09/12 15:01:48;;;;;;;0.70;0.50;;;;;;;;;;5052717;28;20029;-45
2022/09/12 15:04:34;;;;;;;0.60;0.60;;;;;;;;;;5050807;28;20062;-46